createdAt,value
2022-11-16T00:01:54.158Z,9.25
2022-11-16T00:04:39.877Z,7.20
2022-11-16T00:07:25.201Z,8.82
2022-11-16T00:10:12.373Z,8.20
2022-11-16T00:12:58.629Z,9.25
2022-11-16T00:15:53.730Z,8.52
2022-11-16T00:18:39.957Z,7.97
2022-11-16T00:21:27.770Z,11.98
2022-11-16T00:24:16.419Z,8.32
2022-11-16T00:27:02.840Z,8.55
2022-11-16T00:29:48.147Z,7.28
2022-11-16T00:32:34.271Z,8.77
2022-11-16T00:35:20.446Z,9.63
2022-11-16T00:38:06.897Z,8.52
2022-11-16T00:40:52.270Z,6.88
2022-11-16T00:43:38.865Z,8.15
2022-11-16T00:46:24.969Z,9.40
2022-11-16T00:49:10.922Z,10.75
2022-11-16T00:51:56.971Z,7.50
2022-11-16T00:54:43.071Z,7.63
2022-11-16T00:57:28.633Z,8.48
2022-11-16T01:00:14.545Z,9.02
2022-11-16T01:02:59.925Z,8.73
2022-11-16T01:05:45.317Z,9.98
2022-11-16T01:08:32.519Z,8.00
2022-11-16T01:11:37.371Z,7.30
2022-11-16T01:14:22.743Z,8.88
2022-11-16T01:17:08.465Z,8.05
2022-11-16T01:19:54.018Z,8.50
2022-11-16T01:22:40.249Z,6.55
2022-11-16T01:25:25.532Z,7.90
2022-11-16T01:28:10.958Z,7.50
2022-11-16T01:30:56.675Z,9.32
2022-11-16T01:33:42.063Z,7.97
2022-11-16T01:36:27.488Z,9.10
2022-11-16T01:39:14.042Z,9.70
2022-11-16T01:41:59.087Z,9.30
2022-11-16T01:44:44.572Z,13.82
2022-11-16T01:47:31.028Z,9.20
2022-11-16T01:50:18.178Z,11.75
2022-11-16T01:53:06.032Z,8.98
2022-11-16T01:55:52.083Z,10.32
2022-11-16T01:58:38.219Z,9.38
2022-11-16T02:01:24.817Z,8.93
2022-11-16T02:04:14.588Z,8.35
2022-11-16T02:07:31.136Z,8.45
2022-11-16T02:10:35.734Z,9.05
2022-11-16T02:13:55.856Z,9.00
2022-11-16T02:17:05.345Z,9.57
2022-11-16T02:20:09.486Z,9.90
2022-11-16T02:23:22.198Z,9.98
2022-11-16T02:26:19.082Z,10.25
2022-11-16T02:29:34.624Z,10.30
2022-11-16T02:32:37.772Z,10.95
2022-11-16T02:35:43.834Z,10.13
2022-11-16T02:38:33.943Z,10.95
2022-11-16T02:41:22.665Z,13.07
2022-11-16T02:44:36.969Z,15.32
2022-11-16T02:47:29.035Z,10.55
2022-11-16T02:50:18.830Z,12.32
2022-11-16T02:53:04.356Z,10.43
2022-11-16T02:55:49.601Z,12.07
2022-11-16T02:58:35.360Z,12.20
2022-11-16T03:01:44.050Z,11.23
2022-11-16T03:04:37.468Z,12.82
2022-11-16T03:07:28.318Z,13.40
2022-11-16T03:10:36.461Z,12.98
2022-11-16T03:13:24.579Z,15.05
2022-11-16T03:16:40.482Z,14.13
2022-11-16T03:19:44.000Z,12.65
2022-11-16T03:22:50.416Z,14.13
2022-11-16T03:25:52.568Z,15.02
2022-11-16T03:29:03.107Z,12.65
2022-11-16T03:31:54.456Z,12.52
2022-11-16T03:34:45.094Z,13.25
2022-11-16T03:37:31.962Z,10.75
2022-11-16T03:40:19.192Z,12.98
2022-11-16T03:43:06.562Z,12.60
2022-11-16T03:45:52.433Z,13.40
2022-11-16T03:48:39.903Z,15.40
2022-11-16T03:51:25.849Z,13.95
2022-11-16T03:54:11.214Z,11.88
2022-11-16T03:56:56.522Z,11.68
2022-11-16T03:59:43.234Z,11.45
2022-11-16T04:02:28.442Z,13.05
2022-11-16T04:05:32.342Z,15.68
2022-11-16T04:08:36.854Z,11.68
2022-11-16T04:11:41.705Z,11.55
2022-11-16T04:14:47.106Z,13.38
2022-11-16T04:17:50.881Z,14.73
2022-11-16T04:20:54.831Z,13.52
2022-11-16T04:23:58.990Z,12.02
2022-11-16T04:27:06.563Z,10.55
2022-11-16T04:29:53.092Z,10.68
2022-11-16T04:32:56.776Z,10.82
2022-11-16T04:36:00.474Z,10.65
2022-11-16T04:38:45.871Z,12.07
2022-11-16T04:42:10.260Z,13.38
2022-11-16T04:45:14.168Z,11.52
2022-11-16T04:47:59.398Z,13.80
2022-11-16T04:50:45.850Z,10.60
2022-11-16T04:53:31.276Z,10.48
2022-11-16T04:56:16.774Z,10.15
2022-11-16T04:59:02.033Z,9.15
2022-11-16T05:02:05.940Z,12.15
2022-11-16T05:04:51.446Z,12.30
2022-11-16T05:07:37.036Z,11.90
2022-11-16T05:10:22.341Z,12.18
2022-11-16T05:13:07.829Z,13.70
2022-11-16T05:15:53.078Z,13.35
2022-11-16T05:18:38.343Z,12.55
2022-11-16T05:21:23.713Z,23.15
2022-11-16T05:24:27.655Z,14.75
2022-11-16T05:27:15.380Z,12.73
2022-11-16T05:30:01.172Z,10.82
2022-11-16T05:32:46.266Z,11.07
2022-11-16T05:35:31.729Z,15.18
2022-11-16T05:38:17.734Z,10.02
2022-11-16T05:41:03.072Z,13.20
2022-11-16T05:43:48.453Z,13.35
2022-11-16T05:46:34.089Z,10.88
2022-11-16T05:49:19.416Z,13.88
2022-11-16T05:52:04.674Z,13.18
2022-11-16T05:54:50.112Z,15.82
2022-11-16T05:57:35.689Z,15.88
2022-11-16T06:00:21.230Z,15.40
2022-11-16T06:03:06.687Z,16.25
2022-11-16T06:05:55.561Z,13.48
2022-11-16T06:08:40.861Z,13.35
2022-11-16T06:11:30.164Z,16.67
2022-11-16T06:14:17.960Z,19.45
2022-11-16T06:17:03.246Z,17.70
2022-11-16T06:19:48.575Z,17.98
2022-11-16T06:22:33.988Z,19.27
2022-11-16T06:25:19.374Z,14.35
2022-11-16T06:28:07.955Z,14.57
2022-11-16T06:30:53.592Z,18.25
2022-11-16T06:33:38.838Z,18.52
2022-11-16T06:36:24.337Z,14.02
2022-11-16T06:39:11.304Z,16.08
2022-11-16T06:41:56.671Z,15.45
2022-11-16T06:44:42.168Z,15.43
2022-11-16T06:47:27.527Z,14.40
2022-11-16T06:50:12.944Z,14.65
2022-11-16T06:53:00.776Z,15.95
2022-11-16T06:55:46.243Z,14.88
2022-11-16T06:58:32.584Z,12.73
2022-11-16T07:01:18.414Z,15.10
2022-11-16T07:04:03.727Z,13.85
2022-11-16T07:06:49.161Z,18.23
2022-11-16T07:09:34.471Z,12.98
2022-11-16T07:12:19.952Z,15.55
2022-11-16T07:15:06.015Z,14.02
2022-11-16T07:17:51.695Z,14.38
2022-11-16T07:20:37.901Z,13.25
2022-11-16T07:23:23.070Z,14.73
2022-11-16T07:26:09.847Z,13.25
2022-11-16T07:28:54.973Z,16.10
2022-11-16T07:31:40.337Z,19.27
2022-11-16T07:34:26.680Z,15.13
2022-11-16T07:37:11.748Z,16.73
2022-11-16T07:39:57.246Z,15.90
2022-11-16T07:42:43.589Z,14.23
2022-11-16T07:45:29.365Z,22.30
2022-11-16T07:48:14.539Z,16.75
2022-11-16T07:51:05.108Z,15.60
2022-11-16T07:53:55.642Z,15.48
2022-11-16T07:56:41.959Z,16.17
2022-11-16T07:59:28.332Z,12.05
2022-11-16T08:02:13.772Z,15.50
2022-11-16T08:04:59.146Z,12.50
2022-11-16T08:07:44.502Z,11.95
2022-11-16T08:10:30.998Z,13.43
2022-11-16T08:13:16.415Z,10.57
2022-11-16T08:16:09.258Z,10.77
2022-11-16T08:18:54.368Z,12.55
2022-11-16T08:21:39.863Z,14.93
2022-11-16T08:24:25.384Z,11.32
2022-11-16T08:27:10.931Z,10.73
2022-11-16T08:29:56.151Z,11.35
2022-11-16T08:32:42.427Z,9.43
2022-11-16T08:35:27.766Z,10.43
2022-11-16T08:38:13.218Z,12.35
2022-11-16T08:40:58.724Z,10.80
2022-11-16T08:43:46.456Z,8.65
2022-11-16T08:46:31.577Z,11.15
2022-11-16T08:49:17.491Z,8.48
2022-11-16T08:52:02.975Z,8.95
2022-11-16T08:54:48.396Z,8.88
2022-11-16T08:57:33.880Z,11.02
2022-11-16T09:00:19.284Z,9.57
2022-11-16T09:03:04.674Z,9.88
2022-11-16T09:05:50.029Z,9.52
2022-11-16T09:08:37.567Z,9.30
2022-11-16T09:11:24.566Z,9.50
2022-11-16T09:14:10.026Z,9.55
2022-11-16T09:16:55.364Z,9.38
2022-11-16T09:19:40.874Z,8.77
2022-11-16T09:22:26.396Z,9.90
2022-11-16T09:25:11.895Z,9.18
2022-11-16T09:27:57.241Z,9.07
2022-11-16T09:30:48.031Z,10.15
2022-11-16T09:33:34.632Z,12.93
2022-11-16T09:36:21.307Z,8.95
2022-11-16T09:42:39.454Z,8.43
2022-11-16T09:46:06.433Z,10.02
2022-11-16T09:48:52.604Z,9.00
2022-11-16T09:51:38.780Z,7.97
2022-11-16T09:54:30.483Z,9.35
2022-11-16T09:57:21.285Z,9.30
2022-11-16T10:00:14.349Z,8.70
2022-11-16T10:03:06.890Z,8.10
2022-11-16T10:06:03.263Z,9.45
2022-11-16T10:08:51.937Z,6.72
2022-11-16T10:11:40.381Z,10.55
2022-11-16T10:14:53.760Z,8.80
2022-11-16T10:18:03.607Z,8.45
2022-11-16T10:21:28.184Z,9.63
2022-11-16T10:24:35.823Z,9.00
2022-11-16T10:27:42.606Z,13.65
2022-11-16T10:30:27.974Z,6.95
2022-11-16T10:33:19.489Z,7.97
2022-11-16T10:36:12.876Z,5.65
2022-11-16T10:39:01.074Z,5.75
2022-11-16T10:41:53.037Z,5.55
2022-11-16T10:44:45.356Z,7.32
2022-11-16T10:47:46.962Z,6.05
2022-11-16T10:50:38.031Z,6.28
2022-11-16T10:53:37.052Z,6.75
2022-11-16T10:56:23.931Z,5.28
2022-11-16T10:59:11.332Z,6.00
2022-11-16T11:02:01.290Z,5.00
2022-11-16T11:05:20.309Z,5.50
2022-11-16T11:08:10.027Z,5.25
2022-11-16T11:11:24.161Z,5.50
2022-11-16T11:14:15.690Z,4.90
2022-11-16T11:17:12.190Z,5.73
2022-11-16T11:20:23.095Z,4.53
2022-11-16T11:23:15.884Z,4.38
2022-11-16T11:26:01.282Z,5.10
2022-11-16T11:28:49.311Z,5.10
2022-11-16T11:31:48.458Z,4.55
2022-11-16T11:34:41.566Z,3.75
2022-11-16T11:37:37.150Z,3.83
2022-11-16T11:40:30.754Z,4.40
2022-11-16T11:43:24.203Z,5.82
2022-11-16T11:46:16.306Z,4.53
2022-11-16T11:49:12.365Z,3.40
2022-11-16T11:52:07.025Z,4.60
2022-11-16T11:54:54.393Z,6.10
2022-11-16T11:57:43.825Z,5.68
2022-11-16T12:00:40.317Z,4.55
2022-11-16T12:03:46.009Z,6.00
2022-11-16T12:06:44.279Z,3.95
2022-11-16T12:10:04.140Z,3.50
2022-11-16T12:12:58.288Z,3.92
2022-11-16T12:16:03.713Z,5.60
2022-11-16T12:19:16.570Z,5.07
2022-11-16T12:22:36.687Z,4.78
2022-11-16T12:25:54.647Z,5.28
2022-11-16T12:28:51.233Z,4.07
2022-11-16T12:31:39.490Z,4.93
2022-11-16T12:34:52.368Z,4.22
2022-11-16T12:37:49.326Z,4.82
2022-11-16T12:41:28.872Z,6.03
2022-11-16T12:44:31.596Z,6.85
2022-11-16T12:47:25.435Z,4.30
2022-11-16T12:50:29.609Z,4.63
2022-11-16T12:53:27.630Z,4.32
2022-11-16T12:56:25.470Z,4.00
2022-11-16T12:59:10.549Z,4.60
2022-11-16T13:02:16.933Z,8.73
2022-11-16T13:05:17.172Z,4.82
2022-11-16T13:08:13.180Z,3.60
2022-11-16T13:11:29.032Z,7.20
2022-11-16T13:14:19.333Z,5.07
2022-11-16T13:17:06.355Z,3.70
2022-11-16T13:20:25.378Z,4.57
2022-11-16T13:23:15.605Z,4.32
2022-11-16T13:26:25.502Z,3.90
2022-11-16T13:29:30.640Z,6.35
2022-11-16T13:32:55.199Z,4.10
2022-11-16T13:35:40.677Z,3.95
2022-11-16T13:38:54.788Z,4.70
2022-11-16T13:41:52.070Z,5.88
2022-11-16T13:44:37.421Z,5.50
2022-11-16T13:47:26.729Z,5.90
2022-11-16T13:50:19.529Z,6.88
2022-11-16T13:56:25.585Z,5.05
2022-11-16T13:59:23.034Z,8.13
2022-11-16T14:02:33.513Z,6.65
2022-11-16T14:05:33.879Z,5.88
2022-11-16T14:08:48.296Z,5.88
2022-11-16T14:11:43.768Z,17.33
2022-11-16T14:15:03.940Z,21.33
2022-11-16T14:17:49.682Z,11.30
2022-11-16T14:20:38.316Z,11.60
2022-11-16T14:23:36.417Z,19.50
2022-11-16T14:26:37.225Z,12.18
2022-11-16T14:29:27.916Z,12.38
2022-11-16T14:32:25.622Z,12.38
2022-11-16T14:35:24.121Z,13.40
2022-11-16T14:38:30.945Z,13.77
2022-11-16T14:41:22.672Z,8.65
2022-11-16T14:44:10.579Z,7.15
2022-11-16T14:46:56.776Z,9.25
2022-11-16T14:49:45.269Z,6.43
2022-11-16T14:52:40.011Z,9.68
2022-11-16T14:55:26.697Z,13.35
2022-11-16T14:58:23.251Z,14.52
2022-11-16T15:01:14.626Z,14.02
2022-11-16T15:04:06.758Z,12.93
2022-11-16T15:06:58.863Z,10.10
2022-11-16T15:09:53.476Z,10.38
2022-11-16T15:12:42.939Z,13.15
2022-11-16T15:15:30.466Z,14.80
2022-11-16T15:18:20.806Z,13.85
2022-11-16T15:21:06.421Z,14.10
2022-11-16T15:24:15.639Z,13.35
2022-11-16T15:27:12.181Z,11.25
2022-11-16T15:30:01.091Z,11.52
2022-11-16T15:32:48.540Z,12.05
2022-11-16T15:35:36.104Z,13.32
2022-11-16T15:38:29.004Z,11.10
2022-11-16T15:41:17.616Z,8.48
2022-11-16T15:44:15.154Z,10.00
2022-11-16T15:47:03.719Z,9.68
2022-11-16T15:49:52.799Z,11.00
2022-11-16T15:52:50.330Z,10.52
2022-11-16T15:55:39.367Z,10.55
2022-11-16T15:58:28.424Z,14.05
2022-11-16T16:01:15.279Z,12.50
2022-11-16T16:04:06.246Z,14.20
2022-11-16T16:06:54.101Z,14.45
2022-11-16T16:09:40.670Z,15.25
2022-11-16T16:12:26.878Z,12.23
2022-11-16T16:15:23.743Z,12.25
2022-11-16T16:18:39.042Z,12.43
2022-11-16T16:21:26.086Z,13.40
2022-11-16T16:24:37.590Z,14.10
2022-11-16T16:27:25.689Z,12.70
2022-11-16T16:30:14.543Z,12.88
2022-11-16T16:33:00.274Z,22.40
2022-11-16T16:35:49.553Z,15.70
2022-11-16T16:38:34.572Z,15.65
2022-11-16T16:41:24.272Z,20.88
2022-11-16T16:44:16.333Z,17.13
2022-11-16T16:47:01.696Z,12.88
2022-11-16T16:49:47.804Z,16.77
2022-11-16T16:52:33.188Z,15.82
2022-11-16T16:55:18.565Z,13.30
2022-11-16T16:58:05.278Z,15.88
2022-11-16T17:00:50.605Z,10.95
2022-11-16T17:03:36.091Z,10.18
2022-11-16T17:06:21.705Z,15.60
2022-11-16T17:09:07.125Z,12.57
2022-11-16T17:11:52.608Z,13.23
2022-11-16T17:14:37.915Z,13.23
2022-11-16T17:17:26.537Z,12.02
2022-11-16T17:20:12.308Z,10.45
2022-11-16T17:22:58.100Z,11.43
2022-11-16T17:25:43.030Z,11.20
2022-11-16T17:28:28.645Z,11.98
2022-11-16T17:31:14.866Z,17.58
2022-11-16T17:34:00.030Z,15.50
2022-11-16T17:36:45.435Z,13.93
2022-11-16T17:39:30.814Z,14.30
2022-11-16T17:42:16.305Z,13.18
2022-11-16T17:45:03.042Z,15.30
2022-11-16T17:47:48.256Z,15.38
2022-11-16T17:50:33.829Z,14.27
2022-11-16T17:53:19.075Z,15.73
2022-11-16T17:56:05.181Z,13.55
2022-11-16T17:58:52.103Z,13.00
2022-11-16T18:01:37.493Z,16.67
2022-11-16T18:04:23.537Z,17.63
2022-11-16T18:07:08.977Z,21.92
2022-11-16T18:09:54.941Z,19.38
2022-11-16T18:12:40.374Z,25.35
2022-11-16T18:15:29.289Z,20.65
2022-11-16T18:18:16.276Z,20.90
2022-11-16T18:21:02.119Z,20.40
2022-11-16T18:23:47.130Z,19.75
2022-11-16T18:26:32.466Z,23.67
2022-11-16T18:29:19.196Z,21.90
2022-11-16T18:32:04.528Z,20.33
2022-11-16T18:34:49.989Z,21.98
2022-11-16T18:37:35.765Z,20.10
2022-11-16T18:40:21.324Z,21.23
2022-11-16T18:43:12.958Z,21.70
2022-11-16T18:45:58.018Z,18.02
2022-11-16T18:48:43.440Z,20.13
2022-11-16T18:51:29.502Z,18.17
2022-11-16T18:54:15.023Z,23.58
2022-11-16T18:57:00.424Z,21.55
2022-11-16T18:59:45.826Z,22.45
2022-11-16T19:02:31.207Z,23.88
2022-11-16T19:05:16.712Z,21.33
2022-11-16T19:08:02.222Z,32.05
2022-11-16T19:10:47.522Z,33.83
2022-11-16T19:13:34.112Z,22.73
2022-11-16T19:16:19.730Z,24.88
2022-11-16T19:19:05.293Z,22.20
2022-11-16T19:21:51.859Z,23.65
2022-11-16T19:24:36.884Z,24.00
2022-11-16T19:27:22.211Z,23.95
2022-11-16T19:30:08.317Z,27.88
2022-11-16T19:32:57.976Z,21.58
2022-11-16T19:35:43.139Z,19.98
2022-11-16T19:38:29.431Z,21.20
2022-11-16T19:41:16.886Z,29.60
2022-11-16T19:44:02.349Z,25.88
2022-11-16T19:46:47.851Z,23.65
2022-11-16T19:49:33.308Z,33.15
2022-11-16T19:52:19.271Z,26.33
2022-11-16T19:55:04.985Z,25.75
2022-11-16T19:57:49.916Z,22.23
2022-11-16T20:00:35.504Z,24.27
2022-11-16T20:03:20.865Z,21.05
2022-11-16T20:06:11.967Z,19.05
2022-11-16T20:09:00.752Z,23.23
2022-11-16T20:11:46.357Z,25.00
2022-11-16T20:14:31.786Z,20.77
2022-11-16T20:17:17.111Z,22.15
2022-11-16T20:20:02.520Z,24.95
2022-11-16T20:22:50.619Z,19.73
2022-11-16T20:25:41.081Z,17.83
2022-11-16T20:28:26.417Z,25.52
2022-11-16T20:31:15.343Z,23.73
2022-11-16T20:34:04.203Z,19.88
2022-11-16T20:36:50.836Z,21.92
2022-11-16T20:39:36.069Z,23.60
2022-11-16T20:42:21.228Z,22.75
2022-11-16T20:45:07.622Z,23.60
2022-11-16T20:47:52.859Z,24.65
2022-11-16T20:50:38.158Z,22.52
2022-11-16T20:53:23.663Z,24.25
2022-11-16T20:56:10.442Z,20.00
2022-11-16T20:58:56.863Z,22.58
2022-11-16T21:01:47.544Z,25.80
2022-11-16T21:04:33.070Z,21.42
2022-11-16T21:07:19.440Z,20.67
2022-11-16T21:10:20.599Z,21.88
2022-11-16T21:13:25.262Z,21.85
2022-11-16T21:16:12.463Z,19.90
2022-11-16T21:18:57.647Z,21.02
2022-11-16T21:21:42.898Z,23.00
2022-11-16T21:24:29.292Z,20.92
2022-11-16T21:27:17.641Z,19.13
2022-11-16T21:30:03.818Z,19.17
2022-11-16T21:32:49.107Z,23.85
2022-11-16T21:35:34.484Z,24.50
2022-11-16T21:38:20.542Z,21.67
2022-11-16T21:41:06.727Z,20.10
2022-11-16T21:43:52.236Z,24.67
2022-11-16T21:46:37.324Z,18.30
2022-11-16T21:49:22.661Z,15.85
2022-11-16T21:52:07.925Z,20.88
2022-11-16T21:54:59.204Z,19.67
2022-11-16T21:57:44.638Z,20.20
2022-11-16T22:00:30.286Z,19.42
2022-11-16T22:03:15.760Z,23.55
2022-11-16T22:06:21.396Z,23.58
2022-11-16T22:09:06.855Z,22.63
2022-11-16T22:11:52.095Z,22.25
2022-11-16T22:14:37.493Z,26.50
2022-11-16T22:17:22.890Z,21.77
2022-11-16T22:20:08.921Z,25.65
2022-11-16T22:22:54.376Z,21.88
2022-11-16T22:25:39.809Z,24.95
2022-11-16T22:28:25.258Z,20.48
2022-11-16T22:31:14.904Z,27.40
2022-11-16T22:34:00.389Z,24.85
2022-11-16T22:36:46.072Z,27.02
2022-11-16T22:39:31.538Z,28.23
2022-11-16T22:42:17.002Z,23.90
2022-11-16T22:45:02.301Z,27.20
2022-11-16T22:47:49.699Z,26.77
2022-11-16T22:50:38.592Z,20.17
2022-11-16T22:53:24.046Z,22.73
2022-11-16T22:56:10.085Z,23.33
2022-11-16T22:58:55.960Z,22.23
2022-11-16T23:01:41.050Z,19.60
2022-11-16T23:04:26.669Z,35.70
2022-11-16T23:07:12.205Z,22.00
2022-11-16T23:09:57.576Z,25.08
2022-11-16T23:13:01.377Z,28.88
2022-11-16T23:15:49.568Z,34.17
2022-11-16T23:18:34.618Z,31.25
2022-11-16T23:21:38.310Z,27.75
2022-11-16T23:24:42.463Z,29.10
2022-11-16T23:27:39.324Z,23.70
2022-11-16T23:30:25.741Z,27.25
2022-11-16T23:33:10.990Z,23.08
2022-11-16T23:35:56.134Z,24.15
2022-11-16T23:38:41.641Z,31.20
2022-11-16T23:41:45.718Z,23.60
2022-11-16T23:44:31.100Z,28.02
2022-11-16T23:47:16.546Z,24.65
2022-11-16T23:50:01.878Z,23.10
2022-11-16T23:52:47.373Z,26.60
2022-11-16T23:55:33.705Z,30.67
2022-11-16T23:58:18.765Z,23.27
